sensor_id;sensor_type;location;lat;lon;timestamp;temperature;humidity
54429;DHT22;40337;52.978;6.310;2023-05-15T00:00:21;12.00;99.90
54429;DHT22;40337;52.978;6.310;2023-05-15T00:02:47;12.00;99.90
54429;DHT22;40337;52.978;6.310;2023-05-15T00:05:13;12.00;99.90
54429;DHT22;40337;52.978;6.310;2023-05-15T00:07:39;12.00;99.90
54429;DHT22;40337;52.978;6.310;2023-05-15T00:10:06;12.00;99.90
54429;DHT22;40337;52.978;6.310;2023-05-15T00:12:32;11.90;99.90
54429;DHT22;40337;52.978;6.310;2023-05-15T00:14:57;11.90;99.90
54429;DHT22;40337;52.978;6.310;2023-05-15T00:17:23;11.90;99.90
54429;DHT22;40337;52.978;6.310;2023-05-15T00:19:49;11.90;99.90
54429;DHT22;40337;52.978;6.310;2023-05-15T00:22:15;11.90;99.90
54429;DHT22;40337;52.978;6.310;2023-05-15T00:24:40;11.90;99.90
54429;DHT22;40337;52.978;6.310;2023-05-15T00:27:06;11.90;99.90
54429;DHT22;40337;52.978;6.310;2023-05-15T00:29:31;11.90;99.90
54429;DHT22;40337;52.978;6.310;2023-05-15T00:31:57;11.90;99.90
54429;DHT22;40337;52.978;6.310;2023-05-15T00:34:23;11.90;99.90
54429;DHT22;40337;52.978;6.310;2023-05-15T00:36:49;11.90;99.90
54429;DHT22;40337;52.978;6.310;2023-05-15T00:39:15;11.90;99.90
54429;DHT22;40337;52.978;6.310;2023-05-15T00:41:40;11.80;99.90
54429;DHT22;40337;52.978;6.310;2023-05-15T00:44:08;11.80;99.90
54429;DHT22;40337;52.978;6.310;2023-05-15T00:46:35;11.80;99.90
54429;DHT22;40337;52.978;6.310;2023-05-15T00:49:03;11.80;99.90
54429;DHT22;40337;52.978;6.310;2023-05-15T00:51:29;11.80;99.90
54429;DHT22;40337;52.978;6.310;2023-05-15T00:53:55;11.80;99.90
54429;DHT22;40337;52.978;6.310;2023-05-15T00:56:22;11.70;99.90
54429;DHT22;40337;52.978;6.310;2023-05-15T00:58:49;11.70;99.90
54429;DHT22;40337;52.978;6.310;2023-05-15T01:01:16;11.70;99.90
54429;DHT22;40337;52.978;6.310;2023-05-15T01:03:45;11.80;99.90
54429;DHT22;40337;52.978;6.310;2023-05-15T01:06:11;11.80;99.90
54429;DHT22;40337;52.978;6.310;2023-05-15T01:08:46;11.80;99.90
54429;DHT22;40337;52.978;6.310;2023-05-15T01:11:15;11.90;99.90
54429;DHT22;40337;52.978;6.310;2023-05-15T01:13:41;11.80;99.90
54429;DHT22;40337;52.978;6.310;2023-05-15T01:16:07;11.70;99.90
54429;DHT22;40337;52.978;6.310;2023-05-15T01:18:34;11.70;99.90
54429;DHT22;40337;52.978;6.310;2023-05-15T01:24:03;11.70;99.90
54429;DHT22;40337;52.978;6.310;2023-05-15T01:29:45;11.60;99.90
54429;DHT22;40337;52.978;6.310;2023-05-15T01:32:19;11.60;99.90
54429;DHT22;40337;52.978;6.310;2023-05-15T01:34:56;11.60;99.90
54429;DHT22;40337;52.978;6.310;2023-05-15T01:37:24;11.60;99.90
54429;DHT22;40337;52.978;6.310;2023-05-15T01:39:56;11.60;99.90
54429;DHT22;40337;52.978;6.310;2023-05-15T01:42:35;11.70;99.90
54429;DHT22;40337;52.978;6.310;2023-05-15T01:45:04;11.70;99.90
54429;DHT22;40337;52.978;6.310;2023-05-15T01:47:40;11.60;99.90
54429;DHT22;40337;52.978;6.310;2023-05-15T01:50:10;11.60;99.90
54429;DHT22;40337;52.978;6.310;2023-05-15T01:52:40;11.60;99.90
54429;DHT22;40337;52.978;6.310;2023-05-15T01:55:07;11.60;99.90
54429;DHT22;40337;52.978;6.310;2023-05-15T01:57:35;11.60;99.90
54429;DHT22;40337;52.978;6.310;2023-05-15T02:00:02;11.60;99.90
54429;DHT22;40337;52.978;6.310;2023-05-15T02:02:28;11.50;99.90
54429;DHT22;40337;52.978;6.310;2023-05-15T02:04:55;11.50;99.90
54429;DHT22;40337;52.978;6.310;2023-05-15T02:07:22;11.40;99.90
54429;DHT22;40337;52.978;6.310;2023-05-15T02:09:50;11.40;99.90
54429;DHT22;40337;52.978;6.310;2023-05-15T02:12:17;11.40;99.90
54429;DHT22;40337;52.978;6.310;2023-05-15T02:14:44;11.40;99.90
54429;DHT22;40337;52.978;6.310;2023-05-15T02:17:11;11.40;99.90
54429;DHT22;40337;52.978;6.310;2023-05-15T02:19:36;11.40;99.90
54429;DHT22;40337;52.978;6.310;2023-05-15T02:22:02;11.40;99.90
54429;DHT22;40337;52.978;6.310;2023-05-15T02:24:28;11.40;99.90
54429;DHT22;40337;52.978;6.310;2023-05-15T02:27:01;11.40;99.90
54429;DHT22;40337;52.978;6.310;2023-05-15T02:32:34;11.40;99.90
54429;DHT22;40337;52.978;6.310;2023-05-15T02:37:53;11.30;99.90
54429;DHT22;40337;52.978;6.310;2023-05-15T02:40:20;11.30;99.90
54429;DHT22;40337;52.978;6.310;2023-05-15T02:42:47;11.30;99.90
54429;DHT22;40337;52.978;6.310;2023-05-15T02:45:13;11.40;99.90
54429;DHT22;40337;52.978;6.310;2023-05-15T02:47:41;11.40;99.90
54429;DHT22;40337;52.978;6.310;2023-05-15T02:50:07;11.40;99.90
54429;DHT22;40337;52.978;6.310;2023-05-15T02:52:33;11.40;99.90
54429;DHT22;40337;52.978;6.310;2023-05-15T02:55:02;11.40;99.90
54429;DHT22;40337;52.978;6.310;2023-05-15T02:57:27;11.30;99.90
54429;DHT22;40337;52.978;6.310;2023-05-15T02:59:54;11.30;99.90
54429;DHT22;40337;52.978;6.310;2023-05-15T03:02:21;11.30;99.90
54429;DHT22;40337;52.978;6.310;2023-05-15T03:04:46;11.20;99.90
54429;DHT22;40337;52.978;6.310;2023-05-15T03:07:12;11.20;99.90
54429;DHT22;40337;52.978;6.310;2023-05-15T03:09:39;11.10;99.90
54429;DHT22;40337;52.978;6.310;2023-05-15T03:12:05;11.10;99.90
54429;DHT22;40337;52.978;6.310;2023-05-15T03:14:31;11.10;99.90
54429;DHT22;40337;52.978;6.310;2023-05-15T03:16:56;11.00;99.90
54429;DHT22;40337;52.978;6.310;2023-05-15T03:19:22;11.00;99.90
54429;DHT22;40337;52.978;6.310;2023-05-15T03:21:47;10.90;99.90
54429;DHT22;40337;52.978;6.310;2023-05-15T03:24:13;10.80;99.90
54429;DHT22;40337;52.978;6.310;2023-05-15T03:26:38;10.80;99.90
54429;DHT22;40337;52.978;6.310;2023-05-15T03:29:06;10.70;99.90
54429;DHT22;40337;52.978;6.310;2023-05-15T03:31:32;10.70;99.90
54429;DHT22;40337;52.978;6.310;2023-05-15T03:33:57;10.60;99.90
54429;DHT22;40337;52.978;6.310;2023-05-15T03:36:23;10.60;99.90
54429;DHT22;40337;52.978;6.310;2023-05-15T03:38:48;10.60;99.90
54429;DHT22;40337;52.978;6.310;2023-05-15T03:41:14;10.60;99.90
54429;DHT22;40337;52.978;6.310;2023-05-15T03:43:39;10.60;99.90
54429;DHT22;40337;52.978;6.310;2023-05-15T03:46:05;10.70;99.90
54429;DHT22;40337;52.978;6.310;2023-05-15T03:48:31;10.70;99.90
54429;DHT22;40337;52.978;6.310;2023-05-15T03:50:56;10.70;99.90
54429;DHT22;40337;52.978;6.310;2023-05-15T03:53:22;10.70;99.90
54429;DHT22;40337;52.978;6.310;2023-05-15T03:55:47;10.70;99.90
54429;DHT22;40337;52.978;6.310;2023-05-15T03:58:13;10.80;99.90
54429;DHT22;40337;52.978;6.310;2023-05-15T04:00:38;10.80;99.90
54429;DHT22;40337;52.978;6.310;2023-05-15T04:03:04;10.70;99.90
54429;DHT22;40337;52.978;6.310;2023-05-15T04:05:30;10.70;99.90
54429;DHT22;40337;52.978;6.310;2023-05-15T04:07:55;10.80;99.90
54429;DHT22;40337;52.978;6.310;2023-05-15T04:10:21;10.80;99.90
54429;DHT22;40337;52.978;6.310;2023-05-15T04:12:46;10.80;99.90
54429;DHT22;40337;52.978;6.310;2023-05-15T04:15:18;10.80;99.90
54429;DHT22;40337;52.978;6.310;2023-05-15T04:17:45;10.80;99.90
54429;DHT22;40337;52.978;6.310;2023-05-15T04:20:13;10.80;99.90
54429;DHT22;40337;52.978;6.310;2023-05-15T04:22:40;10.80;99.90
54429;DHT22;40337;52.978;6.310;2023-05-15T04:25:06;10.70;99.90
54429;DHT22;40337;52.978;6.310;2023-05-15T04:27:32;10.80;99.90
54429;DHT22;40337;52.978;6.310;2023-05-15T04:29:58;10.80;99.90
54429;DHT22;40337;52.978;6.310;2023-05-15T04:32:24;10.90;99.90
54429;DHT22;40337;52.978;6.310;2023-05-15T04:34:49;10.90;99.90
54429;DHT22;40337;52.978;6.310;2023-05-15T04:37:15;10.90;99.90
54429;DHT22;40337;52.978;6.310;2023-05-15T04:39:40;10.90;99.90
54429;DHT22;40337;52.978;6.310;2023-05-15T04:42:06;11.00;99.90
54429;DHT22;40337;52.978;6.310;2023-05-15T04:44:32;11.00;99.90
54429;DHT22;40337;52.978;6.310;2023-05-15T04:46:58;11.00;99.90
54429;DHT22;40337;52.978;6.310;2023-05-15T04:49:23;11.00;99.90
54429;DHT22;40337;52.978;6.310;2023-05-15T04:51:49;11.10;99.90
54429;DHT22;40337;52.978;6.310;2023-05-15T04:54:14;11.10;99.90
54429;DHT22;40337;52.978;6.310;2023-05-15T04:56:40;11.10;99.90
54429;DHT22;40337;52.978;6.310;2023-05-15T04:59:05;11.20;99.90
54429;DHT22;40337;52.978;6.310;2023-05-15T05:01:34;11.20;99.90
54429;DHT22;40337;52.978;6.310;2023-05-15T05:03:59;11.20;99.90
54429;DHT22;40337;52.978;6.310;2023-05-15T05:06:25;11.20;99.90
54429;DHT22;40337;52.978;6.310;2023-05-15T05:08:50;11.30;99.90
54429;DHT22;40337;52.978;6.310;2023-05-15T05:11:16;11.30;99.90
54429;DHT22;40337;52.978;6.310;2023-05-15T05:13:41;11.30;99.90
54429;DHT22;40337;52.978;6.310;2023-05-15T05:16:07;11.30;99.90
54429;DHT22;40337;52.978;6.310;2023-05-15T05:18:33;11.40;99.90
54429;DHT22;40337;52.978;6.310;2023-05-15T05:20:59;11.50;99.90
54429;DHT22;40337;52.978;6.310;2023-05-15T05:23:26;11.50;99.90
54429;DHT22;40337;52.978;6.310;2023-05-15T05:25:51;11.60;99.90
54429;DHT22;40337;52.978;6.310;2023-05-15T05:28:17;11.60;99.90
54429;DHT22;40337;52.978;6.310;2023-05-15T05:30:46;11.60;99.90
54429;DHT22;40337;52.978;6.310;2023-05-15T05:33:12;11.60;99.90
54429;DHT22;40337;52.978;6.310;2023-05-15T05:35:38;11.60;99.90
54429;DHT22;40337;52.978;6.310;2023-05-15T05:38:03;11.70;99.90
54429;DHT22;40337;52.978;6.310;2023-05-15T05:40:29;11.60;99.90
54429;DHT22;40337;52.978;6.310;2023-05-15T05:42:59;11.60;99.90
54429;DHT22;40337;52.978;6.310;2023-05-15T05:45:24;11.60;99.90
54429;DHT22;40337;52.978;6.310;2023-05-15T05:47:50;11.70;99.90
54429;DHT22;40337;52.978;6.310;2023-05-15T05:50:15;11.70;99.90
54429;DHT22;40337;52.978;6.310;2023-05-15T05:52:41;11.70;99.90
54429;DHT22;40337;52.978;6.310;2023-05-15T05:55:07;11.70;99.90
54429;DHT22;40337;52.978;6.310;2023-05-15T05:57:32;11.80;99.90
54429;DHT22;40337;52.978;6.310;2023-05-15T05:59:59;11.80;99.90
54429;DHT22;40337;52.978;6.310;2023-05-15T06:02:24;11.90;99.90
54429;DHT22;40337;52.978;6.310;2023-05-15T06:04:50;11.90;99.90
54429;DHT22;40337;52.978;6.310;2023-05-15T06:07:16;11.90;99.90
54429;DHT22;40337;52.978;6.310;2023-05-15T06:09:41;11.90;99.90
54429;DHT22;40337;52.978;6.310;2023-05-15T06:12:07;12.00;99.90
54429;DHT22;40337;52.978;6.310;2023-05-15T06:14:33;12.30;99.90
54429;DHT22;40337;52.978;6.310;2023-05-15T06:16:59;12.70;99.90
54429;DHT22;40337;52.978;6.310;2023-05-15T06:19:25;13.30;99.90
54429;DHT22;40337;52.978;6.310;2023-05-15T06:21:51;13.80;99.90
54429;DHT22;40337;52.978;6.310;2023-05-15T06:24:17;14.10;99.90
54429;DHT22;40337;52.978;6.310;2023-05-15T06:26:43;14.30;99.90
54429;DHT22;40337;52.978;6.310;2023-05-15T06:29:08;14.40;99.90
54429;DHT22;40337;52.978;6.310;2023-05-15T06:31:34;14.50;99.90
54429;DHT22;40337;52.978;6.310;2023-05-15T06:33:59;14.90;99.90
54429;DHT22;40337;52.978;6.310;2023-05-15T06:36:25;15.30;99.90
54429;DHT22;40337;52.978;6.310;2023-05-15T06:38:50;15.70;99.90
54429;DHT22;40337;52.978;6.310;2023-05-15T06:41:16;16.00;99.90
54429;DHT22;40337;52.978;6.310;2023-05-15T06:43:41;16.40;99.90
54429;DHT22;40337;52.978;6.310;2023-05-15T06:46:07;16.50;99.90
54429;DHT22;40337;52.978;6.310;2023-05-15T06:48:32;16.40;99.90
54429;DHT22;40337;52.978;6.310;2023-05-15T06:50:58;16.30;99.90
54429;DHT22;40337;52.978;6.310;2023-05-15T06:53:24;15.90;99.90
54429;DHT22;40337;52.978;6.310;2023-05-15T06:55:49;15.30;99.90
54429;DHT22;40337;52.978;6.310;2023-05-15T06:58:15;15.20;99.90
54429;DHT22;40337;52.978;6.310;2023-05-15T07:00:42;15.50;99.90
54429;DHT22;40337;52.978;6.310;2023-05-15T07:03:08;15.90;99.90
54429;DHT22;40337;52.978;6.310;2023-05-15T07:05:33;16.20;99.90
54429;DHT22;40337;52.978;6.310;2023-05-15T07:07:59;16.40;99.90
54429;DHT22;40337;52.978;6.310;2023-05-15T07:10:24;16.60;99.90
54429;DHT22;40337;52.978;6.310;2023-05-15T07:12:50;16.90;99.90
54429;DHT22;40337;52.978;6.310;2023-05-15T07:15:16;17.40;99.90
54429;DHT22;40337;52.978;6.310;2023-05-15T07:17:42;17.60;99.90
54429;DHT22;40337;52.978;6.310;2023-05-15T07:20:08;17.80;99.90
54429;DHT22;40337;52.978;6.310;2023-05-15T07:22:33;17.90;99.90
54429;DHT22;40337;52.978;6.310;2023-05-15T07:24:59;17.90;99.90
54429;DHT22;40337;52.978;6.310;2023-05-15T07:27:24;18.00;99.90
54429;DHT22;40337;52.978;6.310;2023-05-15T07:29:51;18.20;99.90
54429;DHT22;40337;52.978;6.310;2023-05-15T07:32:17;18.40;99.90
54429;DHT22;40337;52.978;6.310;2023-05-15T07:34:43;18.40;99.90
54429;DHT22;40337;52.978;6.310;2023-05-15T07:37:08;18.20;99.90
54429;DHT22;40337;52.978;6.310;2023-05-15T07:39:34;18.30;99.90
54429;DHT22;40337;52.978;6.310;2023-05-15T07:42:00;18.10;99.90
54429;DHT22;40337;52.978;6.310;2023-05-15T07:44:25;17.60;99.90
54429;DHT22;40337;52.978;6.310;2023-05-15T07:46:51;17.80;99.90
54429;DHT22;40337;52.978;6.310;2023-05-15T07:49:16;17.80;99.90
54429;DHT22;40337;52.978;6.310;2023-05-15T07:51:42;18.00;99.90
54429;DHT22;40337;52.978;6.310;2023-05-15T07:54:07;18.20;99.90
54429;DHT22;40337;52.978;6.310;2023-05-15T07:56:33;18.30;99.90
54429;DHT22;40337;52.978;6.310;2023-05-15T07:58:58;18.40;99.90
54429;DHT22;40337;52.978;6.310;2023-05-15T08:01:24;18.60;99.90
54429;DHT22;40337;52.978;6.310;2023-05-15T08:03:49;18.70;99.90
54429;DHT22;40337;52.978;6.310;2023-05-15T08:06:15;18.60;99.90
54429;DHT22;40337;52.978;6.310;2023-05-15T08:08:40;18.80;99.90
54429;DHT22;40337;52.978;6.310;2023-05-15T08:11:06;18.70;99.90
54429;DHT22;40337;52.978;6.310;2023-05-15T08:13:31;18.80;99.90
54429;DHT22;40337;52.978;6.310;2023-05-15T08:15:57;18.80;99.90
54429;DHT22;40337;52.978;6.310;2023-05-15T08:18:23;19.00;99.90
54429;DHT22;40337;52.978;6.310;2023-05-15T08:20:48;18.80;99.90
54429;DHT22;40337;52.978;6.310;2023-05-15T08:23:14;19.00;99.90
54429;DHT22;40337;52.978;6.310;2023-05-15T08:25:40;19.10;99.90
54429;DHT22;40337;52.978;6.310;2023-05-15T08:28:05;19.10;99.90
54429;DHT22;40337;52.978;6.310;2023-05-15T08:30:31;19.20;99.90
54429;DHT22;40337;52.978;6.310;2023-05-15T08:32:56;19.30;99.90
54429;DHT22;40337;52.978;6.310;2023-05-15T08:35:22;19.50;99.90
54429;DHT22;40337;52.978;6.310;2023-05-15T08:37:47;19.60;99.90
54429;DHT22;40337;52.978;6.310;2023-05-15T08:40:13;19.70;99.90
54429;DHT22;40337;52.978;6.310;2023-05-15T08:42:43;19.80;99.90
54429;DHT22;40337;52.978;6.310;2023-05-15T08:45:12;19.80;99.90
54429;DHT22;40337;52.978;6.310;2023-05-15T08:47:39;19.90;99.90
54429;DHT22;40337;52.978;6.310;2023-05-15T08:50:09;20.10;99.90
54429;DHT22;40337;52.978;6.310;2023-05-15T08:52:37;20.30;99.90
54429;DHT22;40337;52.978;6.310;2023-05-15T08:55:06;20.50;99.90
54429;DHT22;40337;52.978;6.310;2023-05-15T08:57:32;20.40;99.90
54429;DHT22;40337;52.978;6.310;2023-05-15T08:59:58;20.50;99.90
54429;DHT22;40337;52.978;6.310;2023-05-15T09:02:24;20.60;99.90
54429;DHT22;40337;52.978;6.310;2023-05-15T09:04:50;20.60;99.90
54429;DHT22;40337;52.978;6.310;2023-05-15T09:07:16;20.70;99.90
54429;DHT22;40337;52.978;6.310;2023-05-15T09:09:43;20.80;99.90
54429;DHT22;40337;52.978;6.310;2023-05-15T09:12:15;20.80;99.90
54429;DHT22;40337;52.978;6.310;2023-05-15T09:14:41;20.80;99.90
54429;DHT22;40337;52.978;6.310;2023-05-15T09:17:09;21.00;99.90
54429;DHT22;40337;52.978;6.310;2023-05-15T09:19:37;21.20;99.90
54429;DHT22;40337;52.978;6.310;2023-05-15T09:22:19;21.40;99.90
54429;DHT22;40337;52.978;6.310;2023-05-15T09:24:49;21.50;99.90
54429;DHT22;40337;52.978;6.310;2023-05-15T09:27:18;21.60;99.90
54429;DHT22;40337;52.978;6.310;2023-05-15T09:29:45;21.80;99.90
54429;DHT22;40337;52.978;6.310;2023-05-15T09:32:14;21.80;99.70
54429;DHT22;40337;52.978;6.310;2023-05-15T09:34:41;21.80;99.20
54429;DHT22;40337;52.978;6.310;2023-05-15T09:37:11;21.70;99.10
54429;DHT22;40337;52.978;6.310;2023-05-15T09:39:41;21.60;99.90
54429;DHT22;40337;52.978;6.310;2023-05-15T09:42:09;21.80;99.80
54429;DHT22;40337;52.978;6.310;2023-05-15T09:44:38;21.90;99.50
54429;DHT22;40337;52.978;6.310;2023-05-15T09:47:05;21.90;99.70
54429;DHT22;40337;52.978;6.310;2023-05-15T09:49:31;22.00;99.90
54429;DHT22;40337;52.978;6.310;2023-05-15T09:51:58;22.30;99.90
54429;DHT22;40337;52.978;6.310;2023-05-15T09:54:24;22.30;99.90
54429;DHT22;40337;52.978;6.310;2023-05-15T09:56:52;22.50;99.50
54429;DHT22;40337;52.978;6.310;2023-05-15T09:59:18;22.80;98.80
54429;DHT22;40337;52.978;6.310;2023-05-15T10:01:47;22.70;97.90
54429;DHT22;40337;52.978;6.310;2023-05-15T10:04:13;22.70;98.30
54429;DHT22;40337;52.978;6.310;2023-05-15T10:06:41;22.70;98.20
54429;DHT22;40337;52.978;6.310;2023-05-15T10:09:07;22.70;98.70
54429;DHT22;40337;52.978;6.310;2023-05-15T10:11:34;22.20;98.50
54429;DHT22;40337;52.978;6.310;2023-05-15T10:14:01;22.40;99.10
54429;DHT22;40337;52.978;6.310;2023-05-15T10:16:28;22.60;98.80
54429;DHT22;40337;52.978;6.310;2023-05-15T10:18:56;22.30;99.00
54429;DHT22;40337;52.978;6.310;2023-05-15T10:21:22;21.90;98.90
54429;DHT22;40337;52.978;6.310;2023-05-15T10:23:49;21.90;99.40
54429;DHT22;40337;52.978;6.310;2023-05-15T10:26:27;21.60;99.30
54429;DHT22;40337;52.978;6.310;2023-05-15T10:28:54;21.60;99.90
54429;DHT22;40337;52.978;6.310;2023-05-15T10:31:21;21.80;99.90
54429;DHT22;40337;52.978;6.310;2023-05-15T10:33:49;21.90;99.40
54429;DHT22;40337;52.978;6.310;2023-05-15T10:36:16;22.10;99.90
54429;DHT22;40337;52.978;6.310;2023-05-15T10:38:42;22.20;99.90
54429;DHT22;40337;52.978;6.310;2023-05-15T10:41:10;22.10;99.60
54429;DHT22;40337;52.978;6.310;2023-05-15T10:43:37;22.00;98.30
54429;DHT22;40337;52.978;6.310;2023-05-15T10:46:03;22.20;99.60
54429;DHT22;40337;52.978;6.310;2023-05-15T10:48:30;22.00;99.00
54429;DHT22;40337;52.978;6.310;2023-05-15T10:50:59;22.20;99.00
54429;DHT22;40337;52.978;6.310;2023-05-15T10:53:26;22.40;99.10
54429;DHT22;40337;52.978;6.310;2023-05-15T10:55:51;22.70;98.80
54429;DHT22;40337;52.978;6.310;2023-05-15T10:58:24;22.60;98.40
54429;DHT22;40337;52.978;6.310;2023-05-15T11:00:49;22.90;98.60
54429;DHT22;40337;52.978;6.310;2023-05-15T11:03:34;23.30;99.40
54429;DHT22;40337;52.978;6.310;2023-05-15T11:06:11;23.40;97.70
54429;DHT22;40337;52.978;6.310;2023-05-15T11:08:39;22.90;97.00
54429;DHT22;40337;52.978;6.310;2023-05-15T11:11:05;22.80;98.20
54429;DHT22;40337;52.978;6.310;2023-05-15T11:21:56;23.80;97.50
54429;DHT22;40337;52.978;6.310;2023-05-15T11:24:30;23.60;96.00
54429;DHT22;40337;52.978;6.310;2023-05-15T11:27:00;23.50;96.60
54429;DHT22;40337;52.978;6.310;2023-05-15T11:29:26;23.20;97.50
54429;DHT22;40337;52.978;6.310;2023-05-15T11:31:52;22.80;97.30
54429;DHT22;40337;52.978;6.310;2023-05-15T11:34:33;22.60;96.70
54429;DHT22;40337;52.978;6.310;2023-05-15T11:37:00;22.40;98.10
54429;DHT22;40337;52.978;6.310;2023-05-15T11:39:26;21.80;98.40
54429;DHT22;40337;52.978;6.310;2023-05-15T11:41:53;21.60;99.20
54429;DHT22;40337;52.978;6.310;2023-05-15T11:44:23;21.10;98.90
54429;DHT22;40337;52.978;6.310;2023-05-15T11:46:52;20.90;99.90
54429;DHT22;40337;52.978;6.310;2023-05-15T11:49:18;20.80;99.60
54429;DHT22;40337;52.978;6.310;2023-05-15T11:51:46;20.60;99.90
54429;DHT22;40337;52.978;6.310;2023-05-15T11:54:12;20.50;99.90
54429;DHT22;40337;52.978;6.310;2023-05-15T11:56:43;20.60;99.90
54429;DHT22;40337;52.978;6.310;2023-05-15T11:59:11;20.60;99.90
54429;DHT22;40337;52.978;6.310;2023-05-15T12:01:41;20.70;99.90
54429;DHT22;40337;52.978;6.310;2023-05-15T12:04:17;20.60;99.90
54429;DHT22;40337;52.978;6.310;2023-05-15T12:06:42;20.40;99.90
54429;DHT22;40337;52.978;6.310;2023-05-15T12:09:15;20.50;99.90
54429;DHT22;40337;52.978;6.310;2023-05-15T12:11:50;20.50;99.90
54429;DHT22;40337;52.978;6.310;2023-05-15T12:14:16;20.60;99.90
54429;DHT22;40337;52.978;6.310;2023-05-15T12:16:41;20.50;99.90
54429;DHT22;40337;52.978;6.310;2023-05-15T12:19:07;20.80;99.90
54429;DHT22;40337;52.978;6.310;2023-05-15T12:21:34;20.90;99.90
54429;DHT22;40337;52.978;6.310;2023-05-15T12:24:00;21.20;99.90
54429;DHT22;40337;52.978;6.310;2023-05-15T12:26:27;21.50;99.90
54429;DHT22;40337;52.978;6.310;2023-05-15T12:28:54;21.60;99.90
54429;DHT22;40337;52.978;6.310;2023-05-15T12:31:20;21.90;99.50
54429;DHT22;40337;52.978;6.310;2023-05-15T12:33:46;21.90;99.30
54429;DHT22;40337;52.978;6.310;2023-05-15T12:36:11;21.70;99.20
54429;DHT22;40337;52.978;6.310;2023-05-15T12:38:38;21.60;99.90
54429;DHT22;40337;52.978;6.310;2023-05-15T12:41:04;21.60;99.80
54429;DHT22;40337;52.978;6.310;2023-05-15T12:43:30;21.50;99.90
54429;DHT22;40337;52.978;6.310;2023-05-15T12:45:56;21.20;99.90
54429;DHT22;40337;52.978;6.310;2023-05-15T12:48:28;21.10;99.90
54429;DHT22;40337;52.978;6.310;2023-05-15T12:50:54;20.80;99.30
54429;DHT22;40337;52.978;6.310;2023-05-15T12:53:20;20.50;99.90
54429;DHT22;40337;52.978;6.310;2023-05-15T12:55:46;20.40;99.90
54429;DHT22;40337;52.978;6.310;2023-05-15T12:58:13;20.20;99.90
54429;DHT22;40337;52.978;6.310;2023-05-15T13:00:41;20.10;99.90
54429;DHT22;40337;52.978;6.310;2023-05-15T13:03:08;19.90;99.90
54429;DHT22;40337;52.978;6.310;2023-05-15T13:05:36;19.70;99.90
54429;DHT22;40337;52.978;6.310;2023-05-15T13:08:04;19.60;99.90
54429;DHT22;40337;52.978;6.310;2023-05-15T13:10:35;19.40;99.90
54429;DHT22;40337;52.978;6.310;2023-05-15T13:13:00;19.40;99.90
54429;DHT22;40337;52.978;6.310;2023-05-15T13:15:30;19.40;99.90
54429;DHT22;40337;52.978;6.310;2023-05-15T13:18:04;19.70;99.90
54429;DHT22;40337;52.978;6.310;2023-05-15T13:20:35;19.70;99.90
54429;DHT22;40337;52.978;6.310;2023-05-15T13:23:02;19.60;99.90
54429;DHT22;40337;52.978;6.310;2023-05-15T13:25:28;19.60;99.90
54429;DHT22;40337;52.978;6.310;2023-05-15T13:27:58;19.70;99.90
54429;DHT22;40337;52.978;6.310;2023-05-15T13:30:24;19.70;99.90
54429;DHT22;40337;52.978;6.310;2023-05-15T13:32:51;19.50;99.90
54429;DHT22;40337;52.978;6.310;2023-05-15T13:35:16;19.40;99.90
54429;DHT22;40337;52.978;6.310;2023-05-15T13:37:42;19.50;99.90
54429;DHT22;40337;52.978;6.310;2023-05-15T13:40:09;19.40;99.90
54429;DHT22;40337;52.978;6.310;2023-05-15T13:42:39;19.20;99.90
54429;DHT22;40337;52.978;6.310;2023-05-15T13:45:07;19.10;99.90
54429;DHT22;40337;52.978;6.310;2023-05-15T13:47:32;19.10;99.90
54429;DHT22;40337;52.978;6.310;2023-05-15T13:49:58;19.10;99.90
54429;DHT22;40337;52.978;6.310;2023-05-15T13:52:24;19.10;99.90
54429;DHT22;40337;52.978;6.310;2023-05-15T13:54:50;19.00;99.90
54429;DHT22;40337;52.978;6.310;2023-05-15T13:57:17;19.00;99.90
54429;DHT22;40337;52.978;6.310;2023-05-15T13:59:43;18.90;99.90
54429;DHT22;40337;52.978;6.310;2023-05-15T14:02:08;18.90;99.90
54429;DHT22;40337;52.978;6.310;2023-05-15T14:04:34;18.90;99.90
54429;DHT22;40337;52.978;6.310;2023-05-15T14:06:59;18.90;99.90
54429;DHT22;40337;52.978;6.310;2023-05-15T14:09:25;18.80;99.90
54429;DHT22;40337;52.978;6.310;2023-05-15T14:11:51;18.70;99.90
54429;DHT22;40337;52.978;6.310;2023-05-15T14:14:16;18.60;99.90
54429;DHT22;40337;52.978;6.310;2023-05-15T14:16:42;18.60;99.90
54429;DHT22;40337;52.978;6.310;2023-05-15T14:19:07;18.50;99.90
54429;DHT22;40337;52.978;6.310;2023-05-15T14:21:33;18.50;99.90
54429;DHT22;40337;52.978;6.310;2023-05-15T14:23:58;18.40;99.90
54429;DHT22;40337;52.978;6.310;2023-05-15T14:26:24;18.30;99.90
54429;DHT22;40337;52.978;6.310;2023-05-15T14:28:50;18.10;99.90
54429;DHT22;40337;52.978;6.310;2023-05-15T14:31:16;18.10;99.90
54429;DHT22;40337;52.978;6.310;2023-05-15T14:33:41;18.00;99.90
54429;DHT22;40337;52.978;6.310;2023-05-15T14:36:07;18.00;99.90
54429;DHT22;40337;52.978;6.310;2023-05-15T14:38:32;17.90;99.90
54429;DHT22;40337;52.978;6.310;2023-05-15T14:40:58;17.80;99.90
54429;DHT22;40337;52.978;6.310;2023-05-15T14:43:24;17.80;99.90
54429;DHT22;40337;52.978;6.310;2023-05-15T14:45:50;17.80;99.90
54429;DHT22;40337;52.978;6.310;2023-05-15T14:48:18;17.70;99.90
54429;DHT22;40337;52.978;6.310;2023-05-15T14:50:44;17.70;99.90
54429;DHT22;40337;52.978;6.310;2023-05-15T14:53:09;17.60;99.90
54429;DHT22;40337;52.978;6.310;2023-05-15T14:55:35;17.40;99.90
54429;DHT22;40337;52.978;6.310;2023-05-15T14:58:00;17.30;99.90
54429;DHT22;40337;52.978;6.310;2023-05-15T15:00:26;17.20;99.90
54429;DHT22;40337;52.978;6.310;2023-05-15T15:02:52;17.10;99.90
54429;DHT22;40337;52.978;6.310;2023-05-15T15:05:18;17.00;99.90
54429;DHT22;40337;52.978;6.310;2023-05-15T15:08:03;16.80;99.90
54429;DHT22;40337;52.978;6.310;2023-05-15T15:10:30;16.80;99.90
54429;DHT22;40337;52.978;6.310;2023-05-15T15:12:56;16.70;99.90
54429;DHT22;40337;52.978;6.310;2023-05-15T15:15:22;16.70;99.90
54429;DHT22;40337;52.978;6.310;2023-05-15T15:17:48;16.60;99.90
54429;DHT22;40337;52.978;6.310;2023-05-15T15:20:15;16.50;99.90
54429;DHT22;40337;52.978;6.310;2023-05-15T15:22:41;16.40;99.90
54429;DHT22;40337;52.978;6.310;2023-05-15T15:25:07;16.30;99.90
54429;DHT22;40337;52.978;6.310;2023-05-15T15:27:33;16.30;99.90
54429;DHT22;40337;52.978;6.310;2023-05-15T15:30:05;16.30;99.90
54429;DHT22;40337;52.978;6.310;2023-05-15T15:32:31;16.40;99.90
54429;DHT22;40337;52.978;6.310;2023-05-15T15:34:57;16.40;99.90
54429;DHT22;40337;52.978;6.310;2023-05-15T15:37:23;16.50;99.90
54429;DHT22;40337;52.978;6.310;2023-05-15T15:39:48;16.50;99.90
54429;DHT22;40337;52.978;6.310;2023-05-15T15:42:14;16.60;99.90
54429;DHT22;40337;52.978;6.310;2023-05-15T15:44:40;16.60;99.90
54429;DHT22;40337;52.978;6.310;2023-05-15T15:47:05;16.50;99.90